Grande-Riviere, Canada
Current Conditions -  °F | °C
As of 11:00 AM on Thursday 27 Nov 2014 (Local Time) from CYGP Reporting Station
Light Snow Light Snow  
Wind Chill: 14°   Ceiling: 600
Heat Index: 25°   Visibility: 0.5mi
Dew Point: 21°   Wind: 12mph
Humidity: 86%   Direction: 350°N
Pressure: 29.73"   Gusts: NA
Location:  48.38°N, 64.5°W
Report Text: CYGP 271600Z 35010KT 1/2SM -SN VV006 M04/M06 A2973 RMK SN8 BLN EST BLN DSAPRD 600 FT SLP070
Loading
Personal Weather Stations






























Interactive Weather Map New forecast layout! Learn more

10-Day Weather Forecast

Advertisements
Track Severe Weather on mobile